sensor_id;sensor_type;location;lat;lon;timestamp;P1;durP1;ratioP1;P2;durP2;ratioP2
47529;SDS011;33272;51.922;7.730;2023-04-08T00:01:57;11.73;;;10.00;;
47529;SDS011;33272;51.922;7.730;2023-04-08T00:04:24;11.73;;;10.03;;
47529;SDS011;33272;51.922;7.730;2023-04-08T00:06:51;10.83;;;9.70;;
47529;SDS011;33272;51.922;7.730;2023-04-08T00:09:19;12.33;;;9.80;;
47529;SDS011;33272;51.922;7.730;2023-04-08T00:11:46;11.13;;;9.93;;
47529;SDS011;33272;51.922;7.730;2023-04-08T00:14:13;12.53;;;10.27;;
47529;SDS011;33272;51.922;7.730;2023-04-08T00:16:40;10.73;;;9.40;;
47529;SDS011;33272;51.922;7.730;2023-04-08T00:19:07;13.23;;;9.83;;
47529;SDS011;33272;51.922;7.730;2023-04-08T00:21:35;11.67;;;10.43;;
47529;SDS011;33272;51.922;7.730;2023-04-08T00:24:02;10.73;;;9.63;;
47529;SDS011;33272;51.922;7.730;2023-04-08T00:26:31;10.90;;;9.80;;
47529;SDS011;33272;51.922;7.730;2023-04-08T00:28:58;12.57;;;10.50;;
47529;SDS011;33272;51.922;7.730;2023-04-08T00:31:25;12.23;;;9.87;;
47529;SDS011;33272;51.922;7.730;2023-04-08T00:33:52;12.47;;;9.97;;
47529;SDS011;33272;51.922;7.730;2023-04-08T00:36:18;12.03;;;10.20;;
47529;SDS011;33272;51.922;7.730;2023-04-08T00:38:46;9.93;;;8.93;;
47529;SDS011;33272;51.922;7.730;2023-04-08T00:41:13;11.60;;;9.40;;
47529;SDS011;33272;51.922;7.730;2023-04-08T00:43:42;11.47;;;10.37;;
47529;SDS011;33272;51.922;7.730;2023-04-08T00:46:09;12.50;;;9.47;;
47529;SDS011;33272;51.922;7.730;2023-04-08T00:48:36;10.70;;;9.57;;
47529;SDS011;33272;51.922;7.730;2023-04-08T00:51:03;11.47;;;9.73;;
47529;SDS011;33272;51.922;7.730;2023-04-08T00:53:31;11.13;;;9.37;;
47529;SDS011;33272;51.922;7.730;2023-04-08T00:55:58;11.90;;;10.37;;
47529;SDS011;33272;51.922;7.730;2023-04-08T00:58:25;11.63;;;10.10;;
47529;SDS011;33272;51.922;7.730;2023-04-08T01:00:57;11.57;;;10.37;;
47529;SDS011;33272;51.922;7.730;2023-04-08T01:03:32;11.50;;;9.63;;
47529;SDS011;33272;51.922;7.730;2023-04-08T01:06:10;12.03;;;9.70;;
47529;SDS011;33272;51.922;7.730;2023-04-08T01:08:55;12.77;;;10.00;;
47529;SDS011;33272;51.922;7.730;2023-04-08T01:11:23;12.40;;;9.50;;
47529;SDS011;33272;51.922;7.730;2023-04-08T01:13:52;10.53;;;9.40;;
47529;SDS011;33272;51.922;7.730;2023-04-08T01:16:22;10.80;;;9.40;;
47529;SDS011;33272;51.922;7.730;2023-04-08T01:18:52;11.50;;;9.40;;
47529;SDS011;33272;51.922;7.730;2023-04-08T01:21:20;10.47;;;8.73;;
47529;SDS011;33272;51.922;7.730;2023-04-08T01:23:52;10.37;;;9.10;;
47529;SDS011;33272;51.922;7.730;2023-04-08T01:26:27;10.27;;;9.17;;
47529;SDS011;33272;51.922;7.730;2023-04-08T01:28:55;11.20;;;9.27;;
47529;SDS011;33272;51.922;7.730;2023-04-08T01:31:26;11.53;;;9.13;;
47529;SDS011;33272;51.922;7.730;2023-04-08T01:33:53;10.13;;;8.90;;
47529;SDS011;33272;51.922;7.730;2023-04-08T01:36:22;10.37;;;9.17;;
47529;SDS011;33272;51.922;7.730;2023-04-08T01:38:51;11.07;;;8.90;;
47529;SDS011;33272;51.922;7.730;2023-04-08T01:41:18;9.80;;;8.80;;
47529;SDS011;33272;51.922;7.730;2023-04-08T01:43:48;10.70;;;9.23;;
47529;SDS011;33272;51.922;7.730;2023-04-08T01:46:15;11.73;;;9.20;;
47529;SDS011;33272;51.922;7.730;2023-04-08T01:48:43;11.97;;;10.00;;
47529;SDS011;33272;51.922;7.730;2023-04-08T01:51:12;9.60;;;8.60;;
47529;SDS011;33272;51.922;7.730;2023-04-08T01:53:41;10.23;;;8.90;;
47529;SDS011;33272;51.922;7.730;2023-04-08T01:56:10;10.57;;;9.47;;
47529;SDS011;33272;51.922;7.730;2023-04-08T01:58:40;11.03;;;9.50;;
47529;SDS011;33272;51.922;7.730;2023-04-08T02:01:13;9.87;;;8.87;;
47529;SDS011;33272;51.922;7.730;2023-04-08T02:03:46;11.27;;;9.17;;
47529;SDS011;33272;51.922;7.730;2023-04-08T02:06:16;10.57;;;9.37;;
47529;SDS011;33272;51.922;7.730;2023-04-08T02:08:43;11.10;;;9.07;;
47529;SDS011;33272;51.922;7.730;2023-04-08T02:11:10;10.23;;;8.77;;
47529;SDS011;33272;51.922;7.730;2023-04-08T02:13:37;9.83;;;8.57;;
47529;SDS011;33272;51.922;7.730;2023-04-08T02:16:07;9.60;;;8.60;;
47529;SDS011;33272;51.922;7.730;2023-04-08T02:18:44;10.63;;;9.30;;
47529;SDS011;33272;51.922;7.730;2023-04-08T02:21:21;10.20;;;8.73;;
47529;SDS011;33272;51.922;7.730;2023-04-08T02:23:58;11.53;;;9.00;;
47529;SDS011;33272;51.922;7.730;2023-04-08T02:26:29;11.10;;;9.50;;
47529;SDS011;33272;51.922;7.730;2023-04-08T02:29:01;10.03;;;9.00;;
47529;SDS011;33272;51.922;7.730;2023-04-08T02:31:31;11.77;;;9.83;;
47529;SDS011;33272;51.922;7.730;2023-04-08T02:33:59;11.00;;;9.63;;
47529;SDS011;33272;51.922;7.730;2023-04-08T02:36:27;11.60;;;9.60;;
47529;SDS011;33272;51.922;7.730;2023-04-08T02:38:57;10.23;;;8.50;;
47529;SDS011;33272;51.922;7.730;2023-04-08T02:41:26;11.17;;;9.40;;
47529;SDS011;33272;51.922;7.730;2023-04-08T02:43:54;11.23;;;9.20;;
47529;SDS011;33272;51.922;7.730;2023-04-08T02:46:21;11.37;;;9.13;;
47529;SDS011;33272;51.922;7.730;2023-04-08T02:48:49;12.00;;;9.10;;
47529;SDS011;33272;51.922;7.730;2023-04-08T02:51:16;13.00;;;9.03;;
47529;SDS011;33272;51.922;7.730;2023-04-08T02:53:43;12.50;;;8.63;;
47529;SDS011;33272;51.922;7.730;2023-04-08T02:56:10;11.93;;;9.07;;
47529;SDS011;33272;51.922;7.730;2023-04-08T02:58:37;10.83;;;9.70;;
47529;SDS011;33272;51.922;7.730;2023-04-08T03:01:04;12.17;;;10.33;;
47529;SDS011;33272;51.922;7.730;2023-04-08T03:03:34;12.00;;;9.47;;
47529;SDS011;33272;51.922;7.730;2023-04-08T03:06:03;9.90;;;8.90;;
47529;SDS011;33272;51.922;7.730;2023-04-08T03:08:30;11.63;;;9.20;;
47529;SDS011;33272;51.922;7.730;2023-04-08T03:10:57;10.77;;;9.40;;
47529;SDS011;33272;51.922;7.730;2023-04-08T03:13:24;11.10;;;9.00;;
47529;SDS011;33272;51.922;7.730;2023-04-08T03:15:53;11.53;;;8.33;;
47529;SDS011;33272;51.922;7.730;2023-04-08T03:18:20;10.83;;;8.83;;
47529;SDS011;33272;51.922;7.730;2023-04-08T03:20:47;10.83;;;8.90;;
47529;SDS011;33272;51.922;7.730;2023-04-08T03:23:16;11.33;;;9.07;;
47529;SDS011;33272;51.922;7.730;2023-04-08T03:25:43;10.87;;;8.80;;
47529;SDS011;33272;51.922;7.730;2023-04-08T03:28:10;9.90;;;8.40;;
47529;SDS011;33272;51.922;7.730;2023-04-08T03:30:37;8.83;;;7.90;;
47529;SDS011;33272;51.922;7.730;2023-04-08T03:33:04;9.80;;;8.37;;
47529;SDS011;33272;51.922;7.730;2023-04-08T03:35:32;10.47;;;8.77;;
47529;SDS011;33272;51.922;7.730;2023-04-08T03:37:59;11.37;;;8.77;;
47529;SDS011;33272;51.922;7.730;2023-04-08T03:40:27;9.43;;;8.33;;
47529;SDS011;33272;51.922;7.730;2023-04-08T03:42:54;10.27;;;8.70;;
47529;SDS011;33272;51.922;7.730;2023-04-08T03:45:21;9.80;;;8.13;;
47529;SDS011;33272;51.922;7.730;2023-04-08T03:47:49;10.70;;;8.13;;
47529;SDS011;33272;51.922;7.730;2023-04-08T03:50:16;9.50;;;8.50;;
47529;SDS011;33272;51.922;7.730;2023-04-08T03:52:43;8.67;;;7.63;;
47529;SDS011;33272;51.922;7.730;2023-04-08T03:55:09;9.93;;;8.03;;
47529;SDS011;33272;51.922;7.730;2023-04-08T03:57:38;10.53;;;8.23;;
47529;SDS011;33272;51.922;7.730;2023-04-08T04:00:06;9.80;;;8.53;;
47529;SDS011;33272;51.922;7.730;2023-04-08T04:02:34;19.33;;;16.37;;
47529;SDS011;33272;51.922;7.730;2023-04-08T04:05:01;15.03;;;12.57;;
47529;SDS011;33272;51.922;7.730;2023-04-08T04:07:28;51.70;;;34.27;;
47529;SDS011;33272;51.922;7.730;2023-04-08T04:09:55;19.07;;;13.77;;
47529;SDS011;33272;51.922;7.730;2023-04-08T04:12:22;16.77;;;13.00;;
47529;SDS011;33272;51.922;7.730;2023-04-08T04:14:51;16.00;;;13.17;;
47529;SDS011;33272;51.922;7.730;2023-04-08T04:17:18;13.07;;;11.47;;
47529;SDS011;33272;51.922;7.730;2023-04-08T04:19:45;15.40;;;11.83;;
47529;SDS011;33272;51.922;7.730;2023-04-08T04:22:12;11.77;;;9.63;;
47529;SDS011;33272;51.922;7.730;2023-04-08T04:24:39;10.93;;;9.17;;
47529;SDS011;33272;51.922;7.730;2023-04-08T04:27:06;11.27;;;9.57;;
47529;SDS011;33272;51.922;7.730;2023-04-08T04:29:33;12.27;;;9.43;;
47529;SDS011;33272;51.922;7.730;2023-04-08T04:32:01;10.43;;;9.33;;
47529;SDS011;33272;51.922;7.730;2023-04-08T04:34:29;9.80;;;8.80;;
47529;SDS011;33272;51.922;7.730;2023-04-08T04:36:55;10.70;;;9.60;;
47529;SDS011;33272;51.922;7.730;2023-04-08T04:39:22;12.77;;;9.80;;
47529;SDS011;33272;51.922;7.730;2023-04-08T04:41:50;10.20;;;8.37;;
47529;SDS011;33272;51.922;7.730;2023-04-08T04:44:17;11.90;;;9.53;;
47529;SDS011;33272;51.922;7.730;2023-04-08T04:46:43;12.10;;;9.33;;
47529;SDS011;33272;51.922;7.730;2023-04-08T04:49:12;11.43;;;9.67;;
47529;SDS011;33272;51.922;7.730;2023-04-08T04:51:39;10.00;;;8.70;;
47529;SDS011;33272;51.922;7.730;2023-04-08T04:54:06;12.43;;;9.73;;
47529;SDS011;33272;51.922;7.730;2023-04-08T04:56:33;9.87;;;8.87;;
47529;SDS011;33272;51.922;7.730;2023-04-08T04:59:00;10.00;;;9.00;;
47529;SDS011;33272;51.922;7.730;2023-04-08T05:01:27;10.03;;;9.03;;
47529;SDS011;33272;51.922;7.730;2023-04-08T05:03:54;10.30;;;8.43;;
47529;SDS011;33272;51.922;7.730;2023-04-08T05:06:23;10.33;;;8.70;;
47529;SDS011;33272;51.922;7.730;2023-04-08T05:08:50;9.83;;;7.93;;
47529;SDS011;33272;51.922;7.730;2023-04-08T05:11:17;9.37;;;8.37;;
47529;SDS011;33272;51.922;7.730;2023-04-08T05:13:45;11.33;;;10.20;;
47529;SDS011;33272;51.922;7.730;2023-04-08T05:16:12;10.67;;;9.57;;
47529;SDS011;33272;51.922;7.730;2023-04-08T05:18:40;8.83;;;7.90;;
47529;SDS011;33272;51.922;7.730;2023-04-08T05:21:07;8.27;;;7.33;;
47529;SDS011;33272;51.922;7.730;2023-04-08T05:23:36;9.67;;;8.63;;
47529;SDS011;33272;51.922;7.730;2023-04-08T05:26:05;9.17;;;7.77;;
47529;SDS011;33272;51.922;7.730;2023-04-08T05:28:33;8.33;;;7.30;;
47529;SDS011;33272;51.922;7.730;2023-04-08T05:31:00;8.03;;;7.23;;
47529;SDS011;33272;51.922;7.730;2023-04-08T05:33:27;10.20;;;7.83;;
47529;SDS011;33272;51.922;7.730;2023-04-08T05:35:54;8.00;;;6.87;;
47529;SDS011;33272;51.922;7.730;2023-04-08T05:38:21;7.63;;;6.90;;
47529;SDS011;33272;51.922;7.730;2023-04-08T05:40:49;10.43;;;7.27;;
47529;SDS011;33272;51.922;7.730;2023-04-08T05:43:16;7.97;;;7.17;;
47529;SDS011;33272;51.922;7.730;2023-04-08T05:45:43;6.90;;;5.80;;
47529;SDS011;33272;51.922;7.730;2023-04-08T05:48:10;8.13;;;6.83;;
47529;SDS011;33272;51.922;7.730;2023-04-08T05:50:37;7.20;;;6.50;;
47529;SDS011;33272;51.922;7.730;2023-04-08T05:53:04;7.20;;;6.43;;
47529;SDS011;33272;51.922;7.730;2023-04-08T05:55:31;7.73;;;6.30;;
47529;SDS011;33272;51.922;7.730;2023-04-08T05:58:00;6.60;;;5.90;;
47529;SDS011;33272;51.922;7.730;2023-04-08T06:00:27;7.57;;;6.20;;
47529;SDS011;33272;51.922;7.730;2023-04-08T06:02:54;8.17;;;5.83;;
47529;SDS011;33272;51.922;7.730;2023-04-08T06:05:21;7.70;;;6.20;;
47529;SDS011;33272;51.922;7.730;2023-04-08T06:07:48;7.00;;;6.30;;
47529;SDS011;33272;51.922;7.730;2023-04-08T06:10:15;7.80;;;6.20;;
47529;SDS011;33272;51.922;7.730;2023-04-08T06:12:42;7.60;;;6.17;;
47529;SDS011;33272;51.922;7.730;2023-04-08T06:15:11;6.60;;;5.83;;
47529;SDS011;33272;51.922;7.730;2023-04-08T06:17:38;8.27;;;6.07;;
47529;SDS011;33272;51.922;7.730;2023-04-08T06:20:05;7.73;;;5.80;;
47529;SDS011;33272;51.922;7.730;2023-04-08T06:22:33;7.10;;;5.60;;
47529;SDS011;33272;51.922;7.730;2023-04-08T06:25:01;6.73;;;5.77;;
47529;SDS011;33272;51.922;7.730;2023-04-08T06:27:28;6.40;;;5.53;;
47529;SDS011;33272;51.922;7.730;2023-04-08T06:29:55;6.37;;;5.77;;
47529;SDS011;33272;51.922;7.730;2023-04-08T06:32:23;7.20;;;5.27;;
47529;SDS011;33272;51.922;7.730;2023-04-08T06:34:50;6.17;;;5.57;;
47529;SDS011;33272;51.922;7.730;2023-04-08T06:37:17;5.93;;;5.13;;
47529;SDS011;33272;51.922;7.730;2023-04-08T06:39:44;6.87;;;5.50;;
47529;SDS011;33272;51.922;7.730;2023-04-08T06:42:11;5.77;;;5.27;;
47529;SDS011;33272;51.922;7.730;2023-04-08T06:44:38;6.10;;;5.50;;
47529;SDS011;33272;51.922;7.730;2023-04-08T06:47:05;8.23;;;6.10;;
47529;SDS011;33272;51.922;7.730;2023-04-08T06:49:33;6.37;;;5.77;;
47529;SDS011;33272;51.922;7.730;2023-04-08T06:52:01;5.40;;;4.87;;
47529;SDS011;33272;51.922;7.730;2023-04-08T06:54:28;5.17;;;4.70;;
47529;SDS011;33272;51.922;7.730;2023-04-08T06:56:55;6.27;;;5.03;;
47529;SDS011;33272;51.922;7.730;2023-04-08T06:59:22;5.93;;;5.30;;
47529;SDS011;33272;51.922;7.730;2023-04-08T07:01:49;6.43;;;4.83;;
47529;SDS011;33272;51.922;7.730;2023-04-08T07:04:15;5.60;;;5.00;;
47529;SDS011;33272;51.922;7.730;2023-04-08T07:06:44;7.53;;;5.00;;
47529;SDS011;33272;51.922;7.730;2023-04-08T07:09:11;6.33;;;4.87;;
47529;SDS011;33272;51.922;7.730;2023-04-08T07:11:38;5.50;;;4.90;;
47529;SDS011;33272;51.922;7.730;2023-04-08T07:14:05;5.83;;;5.17;;
47529;SDS011;33272;51.922;7.730;2023-04-08T07:16:32;6.23;;;5.63;;
47529;SDS011;33272;51.922;7.730;2023-04-08T07:18:58;5.40;;;4.90;;
47529;SDS011;33272;51.922;7.730;2023-04-08T07:21:25;8.03;;;5.53;;
47529;SDS011;33272;51.922;7.730;2023-04-08T07:23:55;6.33;;;5.73;;
47529;SDS011;33272;51.922;7.730;2023-04-08T07:26:22;5.70;;;5.17;;
47529;SDS011;33272;51.922;7.730;2023-04-08T07:28:49;5.83;;;5.17;;
47529;SDS011;33272;51.922;7.730;2023-04-08T07:31:17;6.00;;;5.40;;
47529;SDS011;33272;51.922;7.730;2023-04-08T07:33:44;6.47;;;5.77;;
47529;SDS011;33272;51.922;7.730;2023-04-08T07:36:12;6.73;;;5.77;;
47529;SDS011;33272;51.922;7.730;2023-04-08T07:38:42;6.03;;;5.43;;
47529;SDS011;33272;51.922;7.730;2023-04-08T07:41:10;6.33;;;5.73;;
47529;SDS011;33272;51.922;7.730;2023-04-08T07:43:37;6.37;;;5.77;;
47529;SDS011;33272;51.922;7.730;2023-04-08T07:46:04;6.37;;;5.70;;
47529;SDS011;33272;51.922;7.730;2023-04-08T07:48:32;6.60;;;6.00;;
47529;SDS011;33272;51.922;7.730;2023-04-08T07:51:01;6.93;;;5.43;;
47529;SDS011;33272;51.922;7.730;2023-04-08T07:53:30;6.03;;;5.43;;
47529;SDS011;33272;51.922;7.730;2023-04-08T07:55:57;7.40;;;6.10;;
47529;SDS011;33272;51.922;7.730;2023-04-08T07:58:25;6.70;;;6.00;;
47529;SDS011;33272;51.922;7.730;2023-04-08T08:00:52;6.70;;;6.00;;
47529;SDS011;33272;51.922;7.730;2023-04-08T08:03:21;7.63;;;5.63;;
47529;SDS011;33272;51.922;7.730;2023-04-08T08:05:48;7.27;;;5.90;;
47529;SDS011;33272;51.922;7.730;2023-04-08T08:08:15;6.17;;;5.57;;
47529;SDS011;33272;51.922;7.730;2023-04-08T08:10:42;7.70;;;6.77;;
47529;SDS011;33272;51.922;7.730;2023-04-08T08:13:09;7.33;;;6.03;;
47529;SDS011;33272;51.922;7.730;2023-04-08T08:15:37;7.53;;;5.97;;
47529;SDS011;33272;51.922;7.730;2023-04-08T08:18:04;8.17;;;6.13;;
47529;SDS011;33272;51.922;7.730;2023-04-08T08:20:31;7.93;;;6.37;;
47529;SDS011;33272;51.922;7.730;2023-04-08T08:23:00;7.17;;;6.17;;
47529;SDS011;33272;51.922;7.730;2023-04-08T08:25:27;6.73;;;5.90;;
47529;SDS011;33272;51.922;7.730;2023-04-08T08:27:54;7.00;;;6.30;;
47529;SDS011;33272;51.922;7.730;2023-04-08T08:30:21;8.13;;;6.10;;
47529;SDS011;33272;51.922;7.730;2023-04-08T08:32:52;6.23;;;5.43;;
47529;SDS011;33272;51.922;7.730;2023-04-08T08:35:20;7.60;;;6.33;;
47529;SDS011;33272;51.922;7.730;2023-04-08T08:37:47;7.13;;;6.43;;
47529;SDS011;33272;51.922;7.730;2023-04-08T08:40:14;7.50;;;6.80;;
47529;SDS011;33272;51.922;7.730;2023-04-08T08:42:42;6.10;;;5.50;;
47529;SDS011;33272;51.922;7.730;2023-04-08T08:45:16;7.40;;;6.70;;
47529;SDS011;33272;51.922;7.730;2023-04-08T08:47:44;8.47;;;6.37;;
47529;SDS011;33272;51.922;7.730;2023-04-08T08:50:12;7.07;;;6.13;;
47529;SDS011;33272;51.922;7.730;2023-04-08T08:52:46;8.17;;;6.00;;
47529;SDS011;33272;51.922;7.730;2023-04-08T08:55:14;7.43;;;6.30;;
47529;SDS011;33272;51.922;7.730;2023-04-08T08:57:44;6.77;;;6.00;;
47529;SDS011;33272;51.922;7.730;2023-04-08T09:00:13;6.90;;;6.20;;
47529;SDS011;33272;51.922;7.730;2023-04-08T09:02:41;6.70;;;6.00;;
47529;SDS011;33272;51.922;7.730;2023-04-08T09:05:08;8.17;;;6.70;;
47529;SDS011;33272;51.922;7.730;2023-04-08T09:07:37;7.20;;;6.10;;
47529;SDS011;33272;51.922;7.730;2023-04-08T09:10:05;7.00;;;6.30;;
47529;SDS011;33272;51.922;7.730;2023-04-08T09:12:34;7.43;;;6.23;;
47529;SDS011;33272;51.922;7.730;2023-04-08T09:15:17;9.10;;;7.33;;
47529;SDS011;33272;51.922;7.730;2023-04-08T09:17:45;9.03;;;7.27;;
47529;SDS011;33272;51.922;7.730;2023-04-08T09:20:12;9.47;;;6.60;;
47529;SDS011;33272;51.922;7.730;2023-04-08T09:22:56;7.50;;;6.70;;
47529;SDS011;33272;51.922;7.730;2023-04-08T09:25:25;6.83;;;6.13;;
47529;SDS011;33272;51.922;7.730;2023-04-08T09:27:53;7.60;;;6.40;;
47529;SDS011;33272;51.922;7.730;2023-04-08T09:30:22;7.30;;;6.00;;
47529;SDS011;33272;51.922;7.730;2023-04-08T09:32:52;8.13;;;6.57;;
47529;SDS011;33272;51.922;7.730;2023-04-08T09:35:21;9.27;;;7.43;;
47529;SDS011;33272;51.922;7.730;2023-04-08T09:37:49;8.33;;;6.60;;
47529;SDS011;33272;51.922;7.730;2023-04-08T09:40:18;8.17;;;6.73;;
47529;SDS011;33272;51.922;7.730;2023-04-08T09:42:46;8.87;;;6.97;;
47529;SDS011;33272;51.922;7.730;2023-04-08T09:45:16;7.03;;;6.33;;
47529;SDS011;33272;51.922;7.730;2023-04-08T09:47:54;8.30;;;7.30;;
47529;SDS011;33272;51.922;7.730;2023-04-08T09:50:23;7.87;;;7.07;;
47529;SDS011;33272;51.922;7.730;2023-04-08T09:52:56;8.37;;;6.77;;
47529;SDS011;33272;51.922;7.730;2023-04-08T09:55:31;8.50;;;6.47;;
47529;SDS011;33272;51.922;7.730;2023-04-08T09:58:02;8.43;;;7.40;;
47529;SDS011;33272;51.922;7.730;2023-04-08T10:00:46;7.80;;;7.00;;
47529;SDS011;33272;51.922;7.730;2023-04-08T10:03:18;7.53;;;6.73;;
47529;SDS011;33272;51.922;7.730;2023-04-08T10:05:53;7.53;;;6.80;;
47529;SDS011;33272;51.922;7.730;2023-04-08T10:08:21;8.07;;;6.90;;
47529;SDS011;33272;51.922;7.730;2023-04-08T10:10:51;7.97;;;7.17;;
47529;SDS011;33272;51.922;7.730;2023-04-08T10:13:20;8.83;;;7.00;;
47529;SDS011;33272;51.922;7.730;2023-04-08T10:15:48;8.33;;;7.03;;
47529;SDS011;33272;51.922;7.730;2023-04-08T10:18:30;8.47;;;7.47;;
47529;SDS011;33272;51.922;7.730;2023-04-08T10:20:58;8.43;;;7.17;;
47529;SDS011;33272;51.922;7.730;2023-04-08T10:26:30;9.17;;;7.53;;
47529;SDS011;33272;51.922;7.730;2023-04-08T10:31:58;9.07;;;7.53;;
47529;SDS011;33272;51.922;7.730;2023-04-08T10:34:27;9.13;;;7.73;;
47529;SDS011;33272;51.922;7.730;2023-04-08T10:36:55;9.50;;;7.30;;
47529;SDS011;33272;51.922;7.730;2023-04-08T10:39:26;10.03;;;7.50;;
47529;SDS011;33272;51.922;7.730;2023-04-08T10:41:54;8.67;;;7.37;;
47529;SDS011;33272;51.922;7.730;2023-04-08T10:44:22;8.10;;;7.07;;
47529;SDS011;33272;51.922;7.730;2023-04-08T10:46:51;8.97;;;7.13;;
47529;SDS011;33272;51.922;7.730;2023-04-08T10:49:19;9.20;;;7.80;;
47529;SDS011;33272;51.922;7.730;2023-04-08T10:51:47;8.80;;;7.73;;
47529;SDS011;33272;51.922;7.730;2023-04-08T10:54:14;8.97;;;7.47;;
47529;SDS011;33272;51.922;7.730;2023-04-08T10:56:43;9.10;;;7.43;;
47529;SDS011;33272;51.922;7.730;2023-04-08T10:59:14;8.83;;;7.47;;
47529;SDS011;33272;51.922;7.730;2023-04-08T11:01:42;10.63;;;7.90;;
47529;SDS011;33272;51.922;7.730;2023-04-08T11:04:11;9.17;;;7.30;;
47529;SDS011;33272;51.922;7.730;2023-04-08T11:06:40;8.97;;;8.07;;
47529;SDS011;33272;51.922;7.730;2023-04-08T11:09:08;8.40;;;7.50;;
47529;SDS011;33272;51.922;7.730;2023-04-08T11:11:36;7.70;;;6.40;;
47529;SDS011;33272;51.922;7.730;2023-04-08T11:14:03;8.90;;;7.53;;
47529;SDS011;33272;51.922;7.730;2023-04-08T11:16:32;9.30;;;7.03;;
47529;SDS011;33272;51.922;7.730;2023-04-08T11:19:01;8.73;;;7.27;;
47529;SDS011;33272;51.922;7.730;2023-04-08T11:21:30;8.07;;;7.27;;
47529;SDS011;33272;51.922;7.730;2023-04-08T11:23:57;11.30;;;7.27;;
47529;SDS011;33272;51.922;7.730;2023-04-08T11:26:24;10.57;;;7.63;;
47529;SDS011;33272;51.922;7.730;2023-04-08T11:28:52;8.60;;;7.70;;
47529;SDS011;33272;51.922;7.730;2023-04-08T11:31:21;8.57;;;7.03;;
47529;SDS011;33272;51.922;7.730;2023-04-08T11:33:51;8.63;;;7.53;;
47529;SDS011;33272;51.922;7.730;2023-04-08T11:36:20;9.47;;;7.90;;
47529;SDS011;33272;51.922;7.730;2023-04-08T11:38:47;9.50;;;7.30;;
47529;SDS011;33272;51.922;7.730;2023-04-08T11:41:14;7.87;;;6.93;;
47529;SDS011;33272;51.922;7.730;2023-04-08T11:43:51;9.47;;;7.47;;
47529;SDS011;33272;51.922;7.730;2023-04-08T11:46:20;9.80;;;7.67;;
47529;SDS011;33272;51.922;7.730;2023-04-08T11:48:59;8.60;;;7.47;;
47529;SDS011;33272;51.922;7.730;2023-04-08T11:51:28;9.27;;;7.27;;
47529;SDS011;33272;51.922;7.730;2023-04-08T11:53:55;8.70;;;7.17;;
47529;SDS011;33272;51.922;7.730;2023-04-08T11:56:22;9.80;;;8.10;;
47529;SDS011;33272;51.922;7.730;2023-04-08T11:58:51;9.83;;;8.70;;
47529;SDS011;33272;51.922;7.730;2023-04-08T12:01:18;10.67;;;8.57;;
47529;SDS011;33272;51.922;7.730;2023-04-08T12:03:55;10.23;;;9.20;;
47529;SDS011;33272;51.922;7.730;2023-04-08T12:06:25;10.60;;;9.37;;
47529;SDS011;33272;51.922;7.730;2023-04-08T12:08:52;10.47;;;9.23;;
47529;SDS011;33272;51.922;7.730;2023-04-08T12:11:21;10.77;;;9.23;;
47529;SDS011;33272;51.922;7.730;2023-04-08T12:13:48;12.53;;;9.80;;
47529;SDS011;33272;51.922;7.730;2023-04-08T12:16:16;12.73;;;9.77;;
47529;SDS011;33272;51.922;7.730;2023-04-08T12:18:43;11.03;;;9.87;;
47529;SDS011;33272;51.922;7.730;2023-04-08T12:21:10;12.20;;;9.57;;
47529;SDS011;33272;51.922;7.730;2023-04-08T12:23:39;11.70;;;9.13;;
47529;SDS011;33272;51.922;7.730;2023-04-08T12:26:06;12.80;;;10.40;;
47529;SDS011;33272;51.922;7.730;2023-04-08T12:28:33;13.03;;;10.70;;
47529;SDS011;33272;51.922;7.730;2023-04-08T12:31:00;11.93;;;10.00;;
47529;SDS011;33272;51.922;7.730;2023-04-08T12:33:27;12.83;;;11.20;;
47529;SDS011;33272;51.922;7.730;2023-04-08T12:35:55;13.30;;;11.43;;
47529;SDS011;33272;51.922;7.730;2023-04-08T12:38:23;12.97;;;10.93;;
47529;SDS011;33272;51.922;7.730;2023-04-08T12:40:52;14.63;;;11.57;;
47529;SDS011;33272;51.922;7.730;2023-04-08T12:43:20;13.23;;;11.10;;
47529;SDS011;33272;51.922;7.730;2023-04-08T12:45:48;14.47;;;11.70;;
47529;SDS011;33272;51.922;7.730;2023-04-08T12:48:16;15.97;;;11.63;;
47529;SDS011;33272;51.922;7.730;2023-04-08T12:50:43;14.63;;;11.43;;
47529;SDS011;33272;51.922;7.730;2023-04-08T12:53:10;14.53;;;11.13;;
47529;SDS011;33272;51.922;7.730;2023-04-08T12:55:37;13.20;;;11.27;;
47529;SDS011;33272;51.922;7.730;2023-04-08T12:58:06;16.07;;;12.20;;
47529;SDS011;33272;51.922;7.730;2023-04-08T13:00:33;16.17;;;12.10;;
47529;SDS011;33272;51.922;7.730;2023-04-08T13:03:01;13.30;;;11.10;;
47529;SDS011;33272;51.922;7.730;2023-04-08T13:05:30;13.90;;;11.60;;
47529;SDS011;33272;51.922;7.730;2023-04-08T13:07:57;13.80;;;11.33;;
47529;SDS011;33272;51.922;7.730;2023-04-08T13:10:24;15.00;;;10.60;;
47529;SDS011;33272;51.922;7.730;2023-04-08T13:12:51;12.67;;;11.03;;
47529;SDS011;33272;51.922;7.730;2023-04-08T13:15:20;16.20;;;11.13;;
47529;SDS011;33272;51.922;7.730;2023-04-08T13:17:47;17.20;;;11.83;;
47529;SDS011;33272;51.922;7.730;2023-04-08T13:20:14;15.47;;;12.53;;
47529;SDS011;33272;51.922;7.730;2023-04-08T13:22:41;15.10;;;12.73;;
47529;SDS011;33272;51.922;7.730;2023-04-08T13:25:08;14.83;;;11.77;;
47529;SDS011;33272;51.922;7.730;2023-04-08T13:27:35;16.53;;;12.60;;
47529;SDS011;33272;51.922;7.730;2023-04-08T13:30:02;16.13;;;12.93;;
47529;SDS011;33272;51.922;7.730;2023-04-08T13:32:31;15.67;;;12.53;;
47529;SDS011;33272;51.922;7.730;2023-04-08T13:34:58;16.43;;;12.23;;
47529;SDS011;33272;51.922;7.730;2023-04-08T13:37:25;16.30;;;12.53;;
47529;SDS011;33272;51.922;7.730;2023-04-08T13:39:52;16.37;;;13.53;;
47529;SDS011;33272;51.922;7.730;2023-04-08T13:42:19;16.80;;;12.53;;
47529;SDS011;33272;51.922;7.730;2023-04-08T13:44:46;15.07;;;12.43;;
47529;SDS011;33272;51.922;7.730;2023-04-08T13:47:13;16.77;;;12.77;;
47529;SDS011;33272;51.922;7.730;2023-04-08T13:49:41;14.30;;;12.57;;
47529;SDS011;33272;51.922;7.730;2023-04-08T13:52:08;15.20;;;12.13;;
47529;SDS011;33272;51.922;7.730;2023-04-08T13:54:35;19.20;;;13.90;;
47529;SDS011;33272;51.922;7.730;2023-04-08T13:57:02;18.77;;;13.83;;
47529;SDS011;33272;51.922;7.730;2023-04-08T13:59:29;15.70;;;12.70;;
47529;SDS011;33272;51.922;7.730;2023-04-08T14:01:56;16.40;;;12.53;;
47529;SDS011;33272;51.922;7.730;2023-04-08T14:04:23;17.13;;;13.83;;
47529;SDS011;33272;51.922;7.730;2023-04-08T14:06:52;20.60;;;16.10;;
47529;SDS011;33272;51.922;7.730;2023-04-08T14:09:21;19.27;;;14.33;;
47529;SDS011;33272;51.922;7.730;2023-04-08T14:11:49;14.27;;;11.70;;
47529;SDS011;33272;51.922;7.730;2023-04-08T14:14:16;13.53;;;10.60;;
47529;SDS011;33272;51.922;7.730;2023-04-08T14:16:43;13.77;;;10.37;;
47529;SDS011;33272;51.922;7.730;2023-04-08T14:19:10;12.47;;;10.70;;
47529;SDS011;33272;51.922;7.730;2023-04-08T14:21:37;13.97;;;9.80;;
47529;SDS011;33272;51.922;7.730;2023-04-08T14:24:05;13.60;;;10.50;;
47529;SDS011;33272;51.922;7.730;2023-04-08T14:26:32;17.87;;;13.33;;
47529;SDS011;33272;51.922;7.730;2023-04-08T14:29:01;16.47;;;14.67;;
47529;SDS011;33272;51.922;7.730;2023-04-08T14:31:28;17.27;;;14.20;;
47529;SDS011;33272;51.922;7.730;2023-04-08T14:33:56;17.67;;;14.23;;
47529;SDS011;33272;51.922;7.730;2023-04-08T14:36:24;20.70;;;14.43;;
47529;SDS011;33272;51.922;7.730;2023-04-08T14:38:52;17.63;;;14.30;;
47529;SDS011;33272;51.922;7.730;2023-04-08T14:41:20;19.20;;;14.67;;
47529;SDS011;33272;51.922;7.730;2023-04-08T14:43:50;17.27;;;13.97;;
47529;SDS011;33272;51.922;7.730;2023-04-08T14:46:20;17.13;;;13.67;;
47529;SDS011;33272;51.922;7.730;2023-04-08T14:48:47;16.70;;;13.50;;
47529;SDS011;33272;51.922;7.730;2023-04-08T14:51:14;18.40;;;14.43;;